Jack Brusco — WDC3066 — position and weather

sailwx.info

Track history (hours):
 
Tides and Currents Weather Stations Pressure Air Temp Water Temp Dewpoint Dewpoint Depression Visibility Wind Speed Wind Dir Waves Ship Positions

Jack Brusco

Owner: Brusco Tug & Barge, Inc., Longview, WA. More information available from US FCC via Universal Licensing System and Coast Guard Vessel Documentation Center.

Last reported at 2017-Nov-19 12:28 UTC. Time now 2017-Nov-19 12:34 UTC.
Position N 46°12' W 123°23'.

Length 36 m; draft 5.2 m.

Type: Tug. MMSI: 3699086.

Date/timePositionNaut miles runAvg speedWind from/ knotsBaromVisibWave heightAir tempDewpointWater temp
2017-Nov-19 12:28N 46°12' W 123°23'0 0.0
2017-Nov-19 11:56N 46°12' W 123°23'0 0.0
2017-Nov-19 11:29N 46°12' W 123°23'0 0.0
2017-Nov-19 10:59N 46°12' W 123°23'0 0.0
2017-Nov-19 10:26N 46°12' W 123°23'0 0.0
2017-Nov-19 09:59N 46°12' W 123°23'0 0.0
2017-Nov-19 09:20N 46°12' W 123°23'0 0.0
2017-Nov-19 08:59N 46°12' W 123°23'0 0.0
2017-Nov-19 08:29N 46°12' W 123°23'0 0.0
2017-Nov-19 07:58N 46°12' W 123°23'0 0.0
2017-Nov-19 07:27N 46°12' W 123°23'0 0.0
2017-Nov-19 07:00N 46°12' W 123°23'0 0.0
2017-Nov-19 06:30N 46°12' W 123°23'2 4.0
2017-Nov-19 06:00N 46°11' W 123°26'713.6
2017-Nov-19 05:31N 46°09' W 123°16'714.3
2017-Nov-19 05:00N 46°11' W 123°06'815.3
2017-Nov-19 04:31N 46°06' W 122°58'2 3.2
2017-Nov-19 04:01N 46°05' W 122°56'0 0.0
2017-Nov-19 03:30N 46°05' W 122°56'1 2.3
2017-Nov-19 03:00N 46°06' W 122°57'2 3.8
2017-Nov-19 02:30N 46°07' W 122°59'2 4.9
2017-Nov-19 02:00N 46°09' W 123°02'3 5.0
2017-Nov-19 01:30N 46°10' W 123°05'2 5.0
2017-Nov-19 01:00N 46°11' W 123°08'2 4.3
2017-Nov-19 00:29N 46°11' W 123°11'2 4.3
2017-Nov-19 00:01N 46°10' W 123°14'2 4.2
2017-Nov-18 23:30N 46°09' W 123°17'2 4.2
2017-Nov-18 23:00N 46°09' W 123°20'2 4.4
2017-Nov-18 22:30N 46°09' W 123°23'2 4.0
2017-Nov-18 22:01N 46°10' W 123°25'2 3.8
2017-Nov-18 21:30N 46°12' W 123°26'2 4.2
2017-Nov-18 21:01N 46°14' W 123°26'2 4.4
2017-Nov-18 20:31N 46°16' W 123°28'2 4.0
2017-Nov-18 20:00N 46°16' W 123°30'3 5.2
2017-Nov-18 19:31N 46°15' W 123°34'2 5.0
2017-Nov-18 19:01N 46°15' W 123°38'3 5.5
2017-Nov-18 18:30N 46°15' W 123°42'3 6.5
2017-Nov-18 18:00N 46°13' W 123°46'3 6.8
2017-Nov-18 17:30N 46°12' W 123°50'3 6.9
2017-Nov-18 17:00N 46°11' W 123°55'3 6.9
2017-Nov-18 16:30N 46°14' W 123°59'3 6.2
2017-Nov-18 16:01N 46°15' W 124°02'3 6.4
2017-Nov-18 15:30N 46°14' W 124°07'3 6.4
2017-Nov-18 15:01N 46°13' W 124°11'3 5.6
2017-Nov-18 14:31N 46°15' W 124°13'3 5.1
2017-Nov-18 14:01N 46°18' W 124°14'3 5.9
2017-Nov-18 13:29N 46°21' W 124°14'4 6.3
2017-Nov-18 12:50N 46°25' W 124°15'2 6.5
2017-Nov-18 12:30N 46°27' W 124°15'4 6.6
2017-Nov-18 11:58N 46°30' W 124°16'3 6.7
2017-Nov-18 11:30N 46°34' W 124°16'4 7.1
2017-Nov-18 11:01N 46°37' W 124°17'4 7.4
2017-Nov-18 10:30N 46°41' W 124°18'4 7.4
2017-Nov-18 10:01N 46°44' W 124°19'4 7.2
2017-Nov-18 09:31N 46°48' W 124°19'3 6.5
2017-Nov-18 09:00N 46°51' W 124°17'3 6.7
2017-Nov-18 08:30N 46°53' W 124°13'3 6.0
2017-Nov-18 08:00N 46°55' W 124°10'3 5.3
2017-Nov-18 07:30N 46°55' W 124°06'2 0.1
2017-Nov-17 00:53N 46°55' W 124°09'3 7.4
2017-Nov-17 00:31N 46°54' W 124°13'5 9.5
2017-Nov-17 00:00N 46°50' W 124°17'5 9.2
2017-Nov-16 23:31N 46°46' W 124°19'5 9.7
2017-Nov-16 23:00N 46°41' W 124°18'5 9.6
2017-Nov-16 22:30N 46°36' W 124°17'5 9.9
2017-Nov-16 22:00N 46°31' W 124°16'5 9.7
2017-Nov-16 21:30N 46°26' W 124°15'5 9.6
2017-Nov-16 21:00N 46°22' W 124°14'5 9.9
2017-Nov-16 20:30N 46°17' W 124°13'4 8.0
2017-Nov-16 20:00N 46°13' W 124°10'4 7.2
2017-Nov-16 19:31N 46°15' W 124°06'4 7.1
2017-Nov-16 19:00N 46°15' W 124°01'4 8.2
2017-Nov-16 18:31N 46°12' W 123°56'4 7.8
2017-Nov-16 18:00N 46°12' W 123°51'4 8.1
2017-Nov-16 17:30N 46°13' W 123°45'4 8.6
2017-Nov-16 17:01N 46°15' W 123°40'5 9.6
2017-Nov-16 16:30N 46°15' W 123°33'5 9.2
2017-Nov-16 16:00N 46°15' W 123°26'4 7.1
2017-Nov-16 15:31N 46°12' W 123°23'0 0.1
2017-Nov-16 15:00N 46°12' W 123°23'0 0.1
2017-Nov-16 14:30N 46°12' W 123°23'0 0.0
2017-Nov-16 14:00N 46°12' W 123°23'0 0.0
2017-Nov-16 13:30N 46°12' W 123°23'0 0.0
2017-Nov-16 13:00N 46°12' W 123°23'0 0.0
2017-Nov-16 12:31N 46°12' W 123°23'0 0.0
2017-Nov-16 12:00N 46°12' W 123°23'0 0.0
2017-Nov-16 11:30N 46°12' W 123°23'0 0.0
2017-Nov-16 10:53N 46°12' W 123°23'0 0.0
2017-Nov-16 10:31N 46°12' W 123°23'0 0.0
2017-Nov-16 10:00N 46°12' W 123°23'0 0.0
2017-Nov-16 09:31N 46°12' W 123°23'0 0.0
2017-Nov-16 09:01N 46°12' W 123°23'0 0.0
2017-Nov-16 08:31N 46°12' W 123°23'0 0.0
2017-Nov-16 08:00N 46°12' W 123°23'0 0.0
2017-Nov-16 07:30N 46°12' W 123°23'0 0.0
2017-Nov-16 07:00N 46°12' W 123°23'0 0.0
2017-Nov-16 06:30N 46°12' W 123°23'0 0.0
2017-Nov-16 06:00N 46°12' W 123°23'0 0.0
2017-Nov-16 05:30N 46°12' W 123°23'0 0.0
2017-Nov-16 05:01N 46°12' W 123°23'0 0.0
2017-Nov-16 04:30N 46°12' W 123°23'0 0.0
2017-Nov-16 04:00N 46°12' W 123°23'0 0.0
2017-Nov-16 03:30N 46°12' W 123°23'0 0.0
2017-Nov-16 03:00N 46°12' W 123°23'0 0.0
2017-Nov-16 02:31N 46°12' W 123°23'0 0.0
2017-Nov-16 02:00N 46°12' W 123°23'0 0.0
2017-Nov-16 01:30N 46°12' W 123°23'0 0.0
2017-Nov-16 01:01N 46°12' W 123°23'0 0.0
2017-Nov-16 00:30N 46°12' W 123°23'0 0.0
2017-Nov-16 00:00N 46°12' W 123°23'0 0.0
2017-Nov-15 23:30N 46°12' W 123°23'0 0.0
2017-Nov-15 23:00N 46°12' W 123°23'0 0.0
2017-Nov-15 22:30N 46°12' W 123°23'0 0.0
2017-Nov-15 22:01N 46°12' W 123°23'0 0.0
2017-Nov-15 21:30N 46°12' W 123°23'0 0.0
2017-Nov-15 21:01N 46°12' W 123°23'0 0.0
2017-Nov-15 20:30N 46°12' W 123°23'0 0.0
2017-Nov-15 20:00N 46°12' W 123°23'0 0.0
2017-Nov-15 19:27N 46°12' W 123°23'0 0.0
2017-Nov-15 18:59N 46°12' W 123°23'0 0.0
2017-Nov-15 18:30N 46°12' W 123°23'0 0.0
2017-Nov-15 18:00N 46°12' W 123°23'0 0.0
2017-Nov-15 17:28N 46°12' W 123°23'0 0.0
2017-Nov-15 17:00N 46°12' W 123°23'0 0.0
2017-Nov-15 16:26N 46°12' W 123°23'0 0.0
2017-Nov-15 16:01N 46°12' W 123°23'0 0.0
2017-Nov-15 15:31N 46°12' W 123°23'0 0.0
2017-Nov-15 15:00N 46°12' W 123°23'0 0.0
2017-Nov-15 14:30N 46°12' W 123°23'0 0.0
2017-Nov-15 14:00N 46°12' W 123°23'0 0.0
2017-Nov-15 13:31N 46°12' W 123°23'0 0.0
2017-Nov-15 13:00N 46°12' W 123°23'0 0.0
2017-Nov-15 12:30N 46°12' W 123°23'0 0.0
2017-Nov-15 12:01N 46°12' W 123°23'0 0.0
2017-Nov-15 11:30N 46°12' W 123°23'0 0.0
2017-Nov-15 11:00N 46°12' W 123°23'0 0.0
2017-Nov-15 10:31N 46°12' W 123°23'0 0.0
2017-Nov-15 10:01N 46°12' W 123°23'0 0.0
2017-Nov-15 09:31N 46°12' W 123°23'0 0.0
2017-Nov-15 09:00N 46°12' W 123°23'0 0.0
2017-Nov-15 08:31N 46°12' W 123°23'0 0.0
2017-Nov-15 08:00N 46°12' W 123°23'0 0.0
2017-Nov-15 07:30N 46°12' W 123°23'0 0.0
2017-Nov-15 06:57N 46°12' W 123°23'0 0.0
2017-Nov-15 06:31N 46°12' W 123°23'0 0.0
2017-Nov-15 06:01N 46°12' W 123°23'0 0.0
2017-Nov-15 05:30N 46°12' W 123°23'0 0.0
2017-Nov-15 05:01N 46°12' W 123°23'0 0.0
2017-Nov-15 04:31N 46°12' W 123°23'0 0.0
2017-Nov-15 04:01N 46°12' W 123°23'0 0.0
2017-Nov-15 03:31N 46°12' W 123°23'0 0.0
2017-Nov-15 03:00N 46°12' W 123°23'0 0.0
2017-Nov-15 02:16N 46°12' W 123°23'0 0.0
2017-Nov-15 02:00N 46°12' W 123°23'0 0.0
2017-Nov-15 01:31N 46°12' W 123°23'0 0.0
2017-Nov-15 01:01N 46°12' W 123°23'0 0.0
2017-Nov-15 00:31N 46°12' W 123°23'0 0.0
2017-Nov-15 00:00N 46°12' W 123°23'0 0.0
2017-Nov-14 23:31N 46°12' W 123°23'0 0.0
2017-Nov-14 23:00N 46°12' W 123°23'  
Track history (hours):
 
Tides and Currents Weather Stations Pressure Air Temp Water Temp Dewpoint Dewpoint Depression Visibility Wind Speed Wind Dir Waves Ship Positions

Jack Brusco

Owner: Brusco Tug & Barge, Inc., Longview, WA. More information available from US FCC via Universal Licensing System and Coast Guard Vessel Documentation Center.

Last reported at 2017-Nov-19 12:28 UTC. Time now 2017-Nov-19 12:34 UTC.
Position N 46°12' W 123°23'.

Length 36 m; draft 5.2 m.

Type: Tug. MMSI: 3699086.

Date/timePositionNaut miles runAvg speedWind from/ knotsBaromVisibWave heightAir tempDewpointWater temp
2017-Nov-19 12:28N 46°12' W 123°23'0 0.0
2017-Nov-19 11:56N 46°12' W 123°23'0 0.0
2017-Nov-19 11:29N 46°12' W 123°23'0 0.0
2017-Nov-19 10:59N 46°12' W 123°23'0 0.0
2017-Nov-19 10:26N 46°12' W 123°23'0 0.0
2017-Nov-19 09:59N 46°12' W 123°23'0 0.0
2017-Nov-19 09:20N 46°12' W 123°23'0 0.0
2017-Nov-19 08:59N 46°12' W 123°23'0 0.0
2017-Nov-19 08:29N 46°12' W 123°23'0 0.0
2017-Nov-19 07:58N 46°12' W 123°23'0 0.0
2017-Nov-19 07:27N 46°12' W 123°23'0 0.0
2017-Nov-19 07:00N 46°12' W 123°23'0 0.0
2017-Nov-19 06:30N 46°12' W 123°23'2 4.0
2017-Nov-19 06:00N 46°11' W 123°26'713.6
2017-Nov-19 05:31N 46°09' W 123°16'714.3
2017-Nov-19 05:00N 46°11' W 123°06'815.3
2017-Nov-19 04:31N 46°06' W 122°58'2 3.2
2017-Nov-19 04:01N 46°05' W 122°56'0 0.0
2017-Nov-19 03:30N 46°05' W 122°56'1 2.3
2017-Nov-19 03:00N 46°06' W 122°57'2 3.8
2017-Nov-19 02:30N 46°07' W 122°59'2 4.9
2017-Nov-19 02:00N 46°09' W 123°02'3 5.0
2017-Nov-19 01:30N 46°10' W 123°05'2 5.0
2017-Nov-19 01:00N 46°11' W 123°08'2 4.3
2017-Nov-19 00:29N 46°11' W 123°11'2 4.3
2017-Nov-19 00:01N 46°10' W 123°14'2 4.2
2017-Nov-18 23:30N 46°09' W 123°17'2 4.2
2017-Nov-18 23:00N 46°09' W 123°20'2 4.4
2017-Nov-18 22:30N 46°09' W 123°23'2 4.0
2017-Nov-18 22:01N 46°10' W 123°25'2 3.8
2017-Nov-18 21:30N 46°12' W 123°26'2 4.2
2017-Nov-18 21:01N 46°14' W 123°26'2 4.4
2017-Nov-18 20:31N 46°16' W 123°28'2 4.0
2017-Nov-18 20:00N 46°16' W 123°30'3 5.2
2017-Nov-18 19:31N 46°15' W 123°34'2 5.0
2017-Nov-18 19:01N 46°15' W 123°38'3 5.5
2017-Nov-18 18:30N 46°15' W 123°42'3 6.5
2017-Nov-18 18:00N 46°13' W 123°46'3 6.8
2017-Nov-18 17:30N 46°12' W 123°50'3 6.9
2017-Nov-18 17:00N 46°11' W 123°55'3 6.9
2017-Nov-18 16:30N 46°14' W 123°59'3 6.2
2017-Nov-18 16:01N 46°15' W 124°02'3 6.4
2017-Nov-18 15:30N 46°14' W 124°07'3 6.4
2017-Nov-18 15:01N 46°13' W 124°11'3 5.6
2017-Nov-18 14:31N 46°15' W 124°13'3 5.1
2017-Nov-18 14:01N 46°18' W 124°14'3 5.9
2017-Nov-18 13:29N 46°21' W 124°14'4 6.3
2017-Nov-18 12:50N 46°25' W 124°15'2 6.5
2017-Nov-18 12:30N 46°27' W 124°15'4 6.6
2017-Nov-18 11:58N 46°30' W 124°16'3 6.7
2017-Nov-18 11:30N 46°34' W 124°16'4 7.1
2017-Nov-18 11:01N 46°37' W 124°17'4 7.4
2017-Nov-18 10:30N 46°41' W 124°18'4 7.4
2017-Nov-18 10:01N 46°44' W 124°19'4 7.2
2017-Nov-18 09:31N 46°48' W 124°19'3 6.5
2017-Nov-18 09:00N 46°51' W 124°17'3 6.7
2017-Nov-18 08:30N 46°53' W 124°13'3 6.0
2017-Nov-18 08:00N 46°55' W 124°10'3 5.3
2017-Nov-18 07:30N 46°55' W 124°06'2 0.1
2017-Nov-17 00:53N 46°55' W 124°09'3 7.4
2017-Nov-17 00:31N 46°54' W 124°13'5 9.5
2017-Nov-17 00:00N 46°50' W 124°17'5 9.2
2017-Nov-16 23:31N 46°46' W 124°19'5 9.7
2017-Nov-16 23:00N 46°41' W 124°18'5 9.6
2017-Nov-16 22:30N 46°36' W 124°17'5 9.9
2017-Nov-16 22:00N 46°31' W 124°16'5 9.7
2017-Nov-16 21:30N 46°26' W 124°15'5 9.6
2017-Nov-16 21:00N 46°22' W 124°14'5 9.9
2017-Nov-16 20:30N 46°17' W 124°13'4 8.0
2017-Nov-16 20:00N 46°13' W 124°10'4 7.2
2017-Nov-16 19:31N 46°15' W 124°06'4 7.1
2017-Nov-16 19:00N 46°15' W 124°01'4 8.2
2017-Nov-16 18:31N 46°12' W 123°56'4 7.8
2017-Nov-16 18:00N 46°12' W 123°51'4 8.1
2017-Nov-16 17:30N 46°13' W 123°45'4 8.6
2017-Nov-16 17:01N 46°15' W 123°40'5 9.6
2017-Nov-16 16:30N 46°15' W 123°33'5 9.2
2017-Nov-16 16:00N 46°15' W 123°26'4 7.1
2017-Nov-16 15:31N 46°12' W 123°23'0 0.1
2017-Nov-16 15:00N 46°12' W 123°23'0 0.1
2017-Nov-16 14:30N 46°12' W 123°23'0 0.0
2017-Nov-16 14:00N 46°12' W 123°23'0 0.0
2017-Nov-16 13:30N 46°12' W 123°23'0 0.0
2017-Nov-16 13:00N 46°12' W 123°23'0 0.0
2017-Nov-16 12:31N 46°12' W 123°23'0 0.0
2017-Nov-16 12:00N 46°12' W 123°23'0 0.0
2017-Nov-16 11:30N 46°12' W 123°23'0 0.0
2017-Nov-16 10:53N 46°12' W 123°23'0 0.0
2017-Nov-16 10:31N 46°12' W 123°23'0 0.0
2017-Nov-16 10:00N 46°12' W 123°23'0 0.0
2017-Nov-16 09:31N 46°12' W 123°23'0 0.0
2017-Nov-16 09:01N 46°12' W 123°23'0 0.0
2017-Nov-16 08:31N 46°12' W 123°23'0 0.0
2017-Nov-16 08:00N 46°12' W 123°23'0 0.0
2017-Nov-16 07:30N 46°12' W 123°23'0 0.0
2017-Nov-16 07:00N 46°12' W 123°23'0 0.0
2017-Nov-16 06:30N 46°12' W 123°23'0 0.0
2017-Nov-16 06:00N 46°12' W 123°23'0 0.0
2017-Nov-16 05:30N 46°12' W 123°23'0 0.0
2017-Nov-16 05:01N 46°12' W 123°23'0 0.0
2017-Nov-16 04:30N 46°12' W 123°23'0 0.0
2017-Nov-16 04:00N 46°12' W 123°23'0 0.0
2017-Nov-16 03:30N 46°12' W 123°23'0 0.0
2017-Nov-16 03:00N 46°12' W 123°23'0 0.0
2017-Nov-16 02:31N 46°12' W 123°23'0 0.0
2017-Nov-16 02:00N 46°12' W 123°23'0 0.0
2017-Nov-16 01:30N 46°12' W 123°23'0 0.0
2017-Nov-16 01:01N 46°12' W 123°23'0 0.0
2017-Nov-16 00:30N 46°12' W 123°23'0 0.0
2017-Nov-16 00:00N 46°12' W 123°23'0 0.0
2017-Nov-15 23:30N 46°12' W 123°23'0 0.0
2017-Nov-15 23:00N 46°12' W 123°23'0 0.0
2017-Nov-15 22:30N 46°12' W 123°23'0 0.0
2017-Nov-15 22:01N 46°12' W 123°23'0 0.0
2017-Nov-15 21:30N 46°12' W 123°23'0 0.0
2017-Nov-15 21:01N 46°12' W 123°23'0 0.0
2017-Nov-15 20:30N 46°12' W 123°23'0 0.0
2017-Nov-15 20:00N 46°12' W 123°23'0 0.0
2017-Nov-15 19:27N 46°12' W 123°23'0 0.0
2017-Nov-15 18:59N 46°12' W 123°23'0 0.0
2017-Nov-15 18:30N 46°12' W 123°23'0 0.0
2017-Nov-15 18:00N 46°12' W 123°23'0 0.0
2017-Nov-15 17:28N 46°12' W 123°23'0 0.0
2017-Nov-15 17:00N 46°12' W 123°23'0 0.0
2017-Nov-15 16:26N 46°12' W 123°23'0 0.0
2017-Nov-15 16:01N 46°12' W 123°23'0 0.0
2017-Nov-15 15:31N 46°12' W 123°23'0 0.0
2017-Nov-15 15:00N 46°12' W 123°23'0 0.0
2017-Nov-15 14:30N 46°12' W 123°23'0 0.0
2017-Nov-15 14:00N 46°12' W 123°23'0 0.0
2017-Nov-15 13:31N 46°12' W 123°23'0 0.0
2017-Nov-15 13:00N 46°12' W 123°23'0 0.0
2017-Nov-15 12:30N 46°12' W 123°23'0 0.0
2017-Nov-15 12:01N 46°12' W 123°23'0 0.0
2017-Nov-15 11:30N 46°12' W 123°23'0 0.0
2017-Nov-15 11:00N 46°12' W 123°23'0 0.0
2017-Nov-15 10:31N 46°12' W 123°23'0 0.0
2017-Nov-15 10:01N 46°12' W 123°23'0 0.0
2017-Nov-15 09:31N 46°12' W 123°23'0 0.0
2017-Nov-15 09:00N 46°12' W 123°23'0 0.0
2017-Nov-15 08:31N 46°12' W 123°23'0 0.0
2017-Nov-15 08:00N 46°12' W 123°23'0 0.0
2017-Nov-15 07:30N 46°12' W 123°23'0 0.0
2017-Nov-15 06:57N 46°12' W 123°23'0 0.0
2017-Nov-15 06:31N 46°12' W 123°23'0 0.0
2017-Nov-15 06:01N 46°12' W 123°23'0 0.0
2017-Nov-15 05:30N 46°12' W 123°23'0 0.0
2017-Nov-15 05:01N 46°12' W 123°23'0 0.0
2017-Nov-15 04:31N 46°12' W 123°23'0 0.0
2017-Nov-15 04:01N 46°12' W 123°23'0 0.0
2017-Nov-15 03:31N 46°12' W 123°23'0 0.0
2017-Nov-15 03:00N 46°12' W 123°23'0 0.0
2017-Nov-15 02:16N 46°12' W 123°23'0 0.0
2017-Nov-15 02:00N 46°12' W 123°23'0 0.0
2017-Nov-15 01:31N 46°12' W 123°23'0 0.0
2017-Nov-15 01:01N 46°12' W 123°23'0 0.0
2017-Nov-15 00:31N 46°12' W 123°23'0 0.0
2017-Nov-15 00:00N 46°12' W 123°23'0 0.0
2017-Nov-14 23:31N 46°12' W 123°23'0 0.0
2017-Nov-14 23:00N 46°12' W 123°23'  

Dump ship's entire track history